createdAt,value
2023-02-16T00:00:07.904Z,12.02
2023-02-16T00:02:10.462Z,12.60
2023-02-16T00:04:27.080Z,12.65
2023-02-16T00:06:29.462Z,11.77
2023-02-16T00:08:30.835Z,13.30
2023-02-16T00:10:36.199Z,12.50
2023-02-16T00:12:55.965Z,12.57
2023-02-16T00:16:59.803Z,12.27
2023-02-16T00:19:01.819Z,13.65
2023-02-16T00:21:03.499Z,12.23
2023-02-16T00:23:05.033Z,12.35
2023-02-16T00:25:08.087Z,11.93
2023-02-16T00:27:13.965Z,13.43
2023-02-16T00:29:22.950Z,12.23
2023-02-16T00:31:31.725Z,12.32
2023-02-16T00:33:33.171Z,11.93
2023-02-16T00:35:34.559Z,12.48
2023-02-16T00:37:35.907Z,11.30
2023-02-16T00:39:38.467Z,12.40
2023-02-16T00:41:51.950Z,12.20
2023-02-16T00:43:54.848Z,12.30
2023-02-16T00:45:57.213Z,12.05
2023-02-16T00:47:58.845Z,13.20
2023-02-16T00:50:00.503Z,13.02
2023-02-16T00:52:02.121Z,12.93
2023-02-16T00:54:03.612Z,13.18
2023-02-16T00:56:05.416Z,12.32
2023-02-16T00:58:25.587Z,12.60
2023-02-16T01:00:31.640Z,12.02
2023-02-16T01:02:33.393Z,13.10
2023-02-16T01:04:35.021Z,12.80
2023-02-16T01:06:54.688Z,12.65
2023-02-16T01:09:29.504Z,12.32
2023-02-16T01:11:30.948Z,13.48
2023-02-16T01:13:35.537Z,13.13
2023-02-16T01:15:38.334Z,12.75
2023-02-16T01:17:40.281Z,13.30
2023-02-16T01:19:41.807Z,12.50
2023-02-16T01:21:43.327Z,13.35
2023-02-16T01:23:45.292Z,13.38
2023-02-16T01:25:46.790Z,13.57
2023-02-16T01:27:48.726Z,13.32
2023-02-16T01:29:50.124Z,12.65
2023-02-16T01:31:51.656Z,13.20
2023-02-16T01:33:53.099Z,11.98
2023-02-16T01:35:57.368Z,13.25
2023-02-16T01:37:58.788Z,13.73
2023-02-16T01:40:00.238Z,13.90
2023-02-16T01:42:13.586Z,13.13
2023-02-16T01:44:20.884Z,12.98
2023-02-16T01:46:44.954Z,12.18
2023-02-16T01:48:46.413Z,13.00
2023-02-16T01:51:12.095Z,12.32
2023-02-16T01:53:34.932Z,12.20
2023-02-16T01:55:44.329Z,12.23
2023-02-16T01:58:19.518Z,13.95
2023-02-16T02:00:52.233Z,13.40
2023-02-16T02:03:19.643Z,12.18
2023-02-16T02:05:37.489Z,13.35
2023-02-16T02:07:49.893Z,12.27
2023-02-16T02:10:10.077Z,12.77
2023-02-16T02:12:32.490Z,13.57
2023-02-16T02:14:38.597Z,13.23
2023-02-16T02:16:40.024Z,13.25
2023-02-16T02:18:41.449Z,12.05
2023-02-16T02:21:39.197Z,11.95
2023-02-16T02:24:21.980Z,12.88
2023-02-16T02:26:54.168Z,13.10
2023-02-16T02:29:27.502Z,13.18
2023-02-16T02:31:34.715Z,12.82
2023-02-16T02:34:10.363Z,12.52
2023-02-16T02:36:30.479Z,12.95
2023-02-16T02:38:50.449Z,12.80
2023-02-16T02:41:18.508Z,12.85
2023-02-16T02:43:37.509Z,12.63
2023-02-16T02:46:20.954Z,13.13
2023-02-16T02:48:22.437Z,12.25
2023-02-16T02:51:16.029Z,13.05
2023-02-16T02:53:17.428Z,12.68
2023-02-16T02:55:37.741Z,12.90
2023-02-16T02:58:08.230Z,12.40
2023-02-16T03:00:34.239Z,12.18
2023-02-16T03:02:38.005Z,12.20
2023-02-16T03:04:40.493Z,12.60
2023-02-16T03:06:47.218Z,12.88
2023-02-16T03:08:53.090Z,13.07
2023-02-16T03:11:17.988Z,14.00
2023-02-16T03:13:26.273Z,13.73
2023-02-16T03:15:30.119Z,12.77
2023-02-16T03:17:56.591Z,12.90
2023-02-16T03:20:19.532Z,12.40
2023-02-16T03:22:40.008Z,12.13
2023-02-16T03:25:00.299Z,12.27
2023-02-16T03:27:21.184Z,12.85
2023-02-16T03:29:24.697Z,13.52
2023-02-16T03:31:32.419Z,12.15
2023-02-16T03:33:34.942Z,14.32
2023-02-16T03:35:36.828Z,14.48
2023-02-16T03:37:40.465Z,13.00
2023-02-16T03:40:00.919Z,13.02
2023-02-16T03:42:02.547Z,13.20
2023-02-16T03:44:04.227Z,13.63
2023-02-16T03:46:05.718Z,13.10
2023-02-16T03:48:08.331Z,13.68
2023-02-16T03:50:10.207Z,13.35
2023-02-16T03:52:11.616Z,13.50
2023-02-16T03:54:13.032Z,14.50
2023-02-16T03:56:14.417Z,12.70
2023-02-16T03:58:19.312Z,14.40
2023-02-16T04:00:21.016Z,13.15
2023-02-16T04:02:22.459Z,12.90
2023-02-16T04:04:23.940Z,13.88
2023-02-16T04:06:25.356Z,13.63
2023-02-16T04:08:26.743Z,13.18
2023-02-16T04:10:28.531Z,12.60
2023-02-16T04:12:38.927Z,13.73
2023-02-16T04:14:43.250Z,13.35
2023-02-16T04:16:45.969Z,12.77
2023-02-16T04:18:47.503Z,12.57
2023-02-16T04:20:48.996Z,13.40
2023-02-16T04:22:50.778Z,12.63
2023-02-16T04:24:52.160Z,13.07
2023-02-16T04:26:53.572Z,12.95
2023-02-16T04:28:54.931Z,12.68
2023-02-16T04:30:56.424Z,12.57
2023-02-16T04:32:59.252Z,12.85
2023-02-16T04:35:00.724Z,12.85
2023-02-16T04:37:02.819Z,13.43
2023-02-16T04:39:04.423Z,13.65
2023-02-16T04:41:06.049Z,13.38
2023-02-16T04:43:07.659Z,13.60
2023-02-16T04:45:10.205Z,13.27
2023-02-16T04:47:11.884Z,13.85
2023-02-16T04:49:13.264Z,12.77
2023-02-16T04:51:14.678Z,13.32
2023-02-16T04:55:48.870Z,13.13
2023-02-16T04:57:50.428Z,13.05
2023-02-16T04:59:51.843Z,13.48
2023-02-16T05:01:53.403Z,14.65
2023-02-16T05:03:55.052Z,13.52
2023-02-16T05:05:56.458Z,13.70
2023-02-16T05:07:57.840Z,13.70
2023-02-16T05:09:59.414Z,13.23
2023-02-16T05:12:19.498Z,13.02
2023-02-16T05:14:43.045Z,12.38
2023-02-16T05:16:45.717Z,14.00
2023-02-16T05:18:47.116Z,13.15
2023-02-16T05:21:06.976Z,13.73
2023-02-16T05:23:08.383Z,13.10
2023-02-16T05:25:09.790Z,13.05
2023-02-16T05:27:14.479Z,13.80
2023-02-16T05:29:15.901Z,14.10
2023-02-16T05:31:17.424Z,14.40
2023-02-16T05:33:18.834Z,14.85
2023-02-16T05:35:20.226Z,14.05
2023-02-16T05:37:21.711Z,13.25
2023-02-16T05:39:23.167Z,13.95
2023-02-16T05:41:25.499Z,13.32
2023-02-16T05:43:26.908Z,14.52
2023-02-16T05:45:28.309Z,13.05
2023-02-16T05:47:29.672Z,13.98
2023-02-16T05:49:31.270Z,13.75
2023-02-16T05:51:32.951Z,13.38
2023-02-16T05:53:34.334Z,14.00
2023-02-16T05:55:35.840Z,13.15
2023-02-16T05:57:37.255Z,13.98
2023-02-16T05:59:38.871Z,13.82
2023-02-16T06:01:40.948Z,14.13
2023-02-16T06:03:42.776Z,13.45
2023-02-16T06:05:44.183Z,13.57
2023-02-16T06:07:45.575Z,14.43
2023-02-16T06:09:46.926Z,13.88
2023-02-16T06:11:48.332Z,13.35
2023-02-16T06:13:50.117Z,15.05
2023-02-16T06:15:54.038Z,13.55
2023-02-16T06:17:55.453Z,13.75
2023-02-16T06:19:56.807Z,14.27
2023-02-16T06:21:58.158Z,16.05
2023-02-16T06:23:59.713Z,13.70
2023-02-16T06:26:01.131Z,13.80
2023-02-16T06:28:03.004Z,13.75
2023-02-16T06:30:06.011Z,13.02
2023-02-16T06:32:07.556Z,13.45
2023-02-16T06:34:08.977Z,14.68
2023-02-16T06:36:11.064Z,13.82
2023-02-16T06:38:12.432Z,13.80
2023-02-16T06:40:14.611Z,13.85
2023-02-16T06:42:15.999Z,14.65
2023-02-16T06:44:17.451Z,14.02
2023-02-16T06:46:18.839Z,15.25
2023-02-16T06:48:20.457Z,14.27
2023-02-16T06:50:21.833Z,14.25
2023-02-16T06:52:23.218Z,13.20
2023-02-16T06:54:24.595Z,14.25
2023-02-16T06:56:26.141Z,14.65
2023-02-16T06:58:27.522Z,15.07
2023-02-16T07:00:29.826Z,14.02
2023-02-16T07:02:31.263Z,14.60
2023-02-16T07:04:32.692Z,14.45
2023-02-16T07:06:34.197Z,14.00
2023-02-16T07:08:35.985Z,14.18
2023-02-16T07:10:49.010Z,13.52
2023-02-16T07:12:51.334Z,13.45
2023-02-16T07:14:52.749Z,14.98
2023-02-16T07:16:54.097Z,14.95
2023-02-16T07:18:55.495Z,13.82
2023-02-16T07:20:56.935Z,14.13
2023-02-16T07:22:58.316Z,13.82
2023-02-16T07:25:00.624Z,13.63
2023-02-16T07:27:02.077Z,14.60
2023-02-16T07:29:04.026Z,14.85
2023-02-16T07:31:16.462Z,14.38
2023-02-16T07:33:18.573Z,13.80
2023-02-16T07:35:20.158Z,13.40
2023-02-16T07:37:21.561Z,15.10
2023-02-16T07:39:23.171Z,13.80
2023-02-16T07:41:24.562Z,13.68
2023-02-16T07:43:26.317Z,13.77
2023-02-16T07:45:28.208Z,13.25
2023-02-16T07:47:29.832Z,13.98
2023-02-16T07:49:31.212Z,13.07
2023-02-16T07:51:33.007Z,13.75
2023-02-16T07:53:34.544Z,13.07
2023-02-16T07:55:40.621Z,13.02
2023-02-16T07:57:42.002Z,12.88
2023-02-16T07:59:43.369Z,13.32
2023-02-16T08:01:44.826Z,13.23
2023-02-16T08:03:46.291Z,14.07
2023-02-16T08:05:47.654Z,13.32
2023-02-16T08:07:49.366Z,12.13
2023-02-16T08:09:50.827Z,13.10
2023-02-16T08:11:52.221Z,12.88
2023-02-16T08:13:53.680Z,13.38
2023-02-16T08:15:55.037Z,12.40
2023-02-16T08:17:56.410Z,13.23
2023-02-16T08:19:57.792Z,13.50
2023-02-16T08:22:02.232Z,13.15
2023-02-16T08:24:06.939Z,13.13
2023-02-16T08:26:10.487Z,13.10
2023-02-16T08:28:14.680Z,12.60
2023-02-16T08:30:17.969Z,14.18
2023-02-16T08:32:20.107Z,13.05
2023-02-16T08:34:22.049Z,12.05
2023-02-16T08:36:34.820Z,12.35
2023-02-16T08:38:36.429Z,12.90
2023-02-16T08:40:37.834Z,12.93
2023-02-16T08:42:39.229Z,13.45
2023-02-16T08:44:42.284Z,11.88
2023-02-16T08:46:45.842Z,12.68
2023-02-16T08:48:47.421Z,12.57
2023-02-16T08:50:55.082Z,12.95
2023-02-16T08:52:58.176Z,13.18
2023-02-16T08:54:59.758Z,12.07
2023-02-16T08:57:02.880Z,12.05
2023-02-16T08:59:04.307Z,13.52
2023-02-16T09:01:08.125Z,12.05
2023-02-16T09:03:09.518Z,12.35
2023-02-16T09:05:10.875Z,12.75
2023-02-16T09:07:13.721Z,12.85
2023-02-16T09:09:15.823Z,13.50
2023-02-16T09:11:17.221Z,11.73
2023-02-16T09:13:18.710Z,12.68
2023-02-16T09:15:20.674Z,12.75
2023-02-16T09:17:22.049Z,11.50
2023-02-16T09:19:24.542Z,12.85
2023-02-16T09:21:25.930Z,12.68
2023-02-16T09:23:27.297Z,13.13
2023-02-16T09:25:28.760Z,12.45
2023-02-16T09:27:30.147Z,12.52
2023-02-16T09:29:31.512Z,12.52
2023-02-16T09:31:37.017Z,12.73
2023-02-16T09:33:40.192Z,11.82
2023-02-16T09:35:41.652Z,12.63
2023-02-16T09:37:43.009Z,12.00
2023-02-16T09:39:44.384Z,12.57
2023-02-16T09:42:08.936Z,12.75
2023-02-16T09:44:48.265Z,12.45
2023-02-16T09:46:50.663Z,12.65
2023-02-16T09:48:53.129Z,12.30
2023-02-16T09:50:55.110Z,12.13
2023-02-16T09:53:06.452Z,11.75
2023-02-16T09:55:13.416Z,13.90
2023-02-16T09:57:48.944Z,11.73
2023-02-16T10:00:06.492Z,12.60
2023-02-16T10:02:32.805Z,12.82
2023-02-16T10:05:02.026Z,12.38
2023-02-16T10:07:41.677Z,12.40
2023-02-16T10:09:48.804Z,12.25
2023-02-16T10:11:56.407Z,12.85
2023-02-16T10:14:04.902Z,13.02
2023-02-16T10:16:13.740Z,12.80
2023-02-16T10:18:33.422Z,12.50
2023-02-16T10:22:53.475Z,12.52
2023-02-16T10:25:02.330Z,11.60
2023-02-16T10:27:10.826Z,11.98
2023-02-16T10:29:23.200Z,11.88
2023-02-16T10:31:44.296Z,11.57
2023-02-16T10:34:09.036Z,10.05
2023-02-16T10:37:02.375Z,10.00
2023-02-16T10:39:16.151Z,10.20
2023-02-16T10:41:36.949Z,10.38
2023-02-16T10:43:51.703Z,10.23
2023-02-16T10:45:56.212Z,10.75
2023-02-16T10:47:57.914Z,10.40
2023-02-16T10:49:59.396Z,9.93
2023-02-16T10:52:02.706Z,10.90
2023-02-16T10:54:33.290Z,11.25
2023-02-16T10:57:04.116Z,11.27
2023-02-16T10:59:13.904Z,10.60
2023-02-16T11:01:21.672Z,10.85
2023-02-16T11:03:28.477Z,10.48
2023-02-16T11:05:34.942Z,9.82
2023-02-16T11:07:52.727Z,11.15
2023-02-16T11:09:57.222Z,10.77
2023-02-16T11:11:59.360Z,11.68
2023-02-16T11:14:09.057Z,11.00
2023-02-16T11:16:19.255Z,10.98
2023-02-16T11:18:42.448Z,11.55
2023-02-16T11:20:47.622Z,11.35
2023-02-16T11:22:49.036Z,11.75
2023-02-16T11:24:50.611Z,11.10
2023-02-16T11:27:20.124Z,12.07
2023-02-16T11:29:21.620Z,12.63
2023-02-16T11:31:37.149Z,12.23
2023-02-16T11:33:40.802Z,12.15
2023-02-16T11:35:43.516Z,12.07
2023-02-16T11:37:44.941Z,12.18
2023-02-16T11:39:53.355Z,11.70
2023-02-16T11:42:04.607Z,11.55
2023-02-16T11:44:22.424Z,12.88
2023-02-16T11:46:24.581Z,12.90
2023-02-16T11:48:29.555Z,12.13
2023-02-16T11:50:35.097Z,12.70
2023-02-16T11:52:36.865Z,12.55
2023-02-16T11:54:48.480Z,12.60
2023-02-16T11:57:05.179Z,13.70
2023-02-16T11:59:21.708Z,11.95
2023-02-16T12:01:46.987Z,12.48
2023-02-16T12:04:08.038Z,12.88
2023-02-16T12:06:21.470Z,12.52
2023-02-16T12:08:37.055Z,13.45
2023-02-16T12:11:16.512Z,12.00
2023-02-16T12:13:39.023Z,13.15
2023-02-16T12:15:52.823Z,12.60
2023-02-16T12:18:31.475Z,12.65
2023-02-16T12:20:58.879Z,12.65
2023-02-16T12:23:23.464Z,12.85
2023-02-16T12:25:38.047Z,13.05
2023-02-16T12:27:50.021Z,13.02
2023-02-16T12:30:20.868Z,13.35
2023-02-16T12:32:34.719Z,12.82
2023-02-16T12:35:07.726Z,13.40
2023-02-16T12:37:51.390Z,13.93
2023-02-16T12:40:12.623Z,12.70
2023-02-16T12:42:45.960Z,13.10
2023-02-16T12:45:03.372Z,14.00
2023-02-16T12:47:14.176Z,13.63
2023-02-16T12:49:27.410Z,14.43
2023-02-16T12:53:42.071Z,13.55
2023-02-16T12:55:51.835Z,13.98
2023-02-16T12:58:04.220Z,13.55
2023-02-16T13:00:21.512Z,13.77
2023-02-16T13:02:42.597Z,15.07
2023-02-16T13:04:50.379Z,14.45
2023-02-16T13:07:22.732Z,15.45
2023-02-16T13:09:36.012Z,14.57
2023-02-16T13:11:49.173Z,14.90
2023-02-16T13:16:04.005Z,13.35
2023-02-16T13:18:31.735Z,14.25
2023-02-16T13:20:33.334Z,14.80
2023-02-16T13:22:54.828Z,13.57
2023-02-16T13:25:23.026Z,14.27
2023-02-16T13:27:55.264Z,12.93
2023-02-16T13:30:04.402Z,13.75
2023-02-16T13:32:14.858Z,13.48
2023-02-16T13:34:26.760Z,13.50
2023-02-16T13:36:42.241Z,13.50
2023-02-16T13:39:11.189Z,13.77
2023-02-16T13:41:42.138Z,13.57
2023-02-16T13:43:52.659Z,13.63
2023-02-16T13:45:54.761Z,13.45
2023-02-16T13:47:57.813Z,14.38
2023-02-16T13:50:09.038Z,13.55
2023-02-16T13:52:32.008Z,12.93
2023-02-16T13:54:36.528Z,14.20
2023-02-16T13:56:38.233Z,13.88
2023-02-16T13:58:40.757Z,12.68
2023-02-16T14:00:45.172Z,13.05
2023-02-16T14:02:56.295Z,13.75
2023-02-16T14:04:57.872Z,13.75
2023-02-16T14:07:07.165Z,13.48
2023-02-16T14:09:14.690Z,13.77
2023-02-16T14:11:16.555Z,13.88
2023-02-16T14:13:18.232Z,14.02
2023-02-16T14:15:21.324Z,14.05
2023-02-16T14:17:28.950Z,13.38
2023-02-16T14:19:31.010Z,13.30
2023-02-16T14:21:45.954Z,14.15
2023-02-16T14:23:55.353Z,13.80
2023-02-16T14:26:08.009Z,14.43
2023-02-16T14:28:21.438Z,13.43
2023-02-16T14:31:07.606Z,13.15
2023-02-16T14:33:12.081Z,13.57
2023-02-16T14:35:17.003Z,13.00
2023-02-16T14:37:18.332Z,12.55
2023-02-16T14:39:22.858Z,14.02
2023-02-16T14:41:33.746Z,12.82
2023-02-16T14:43:45.245Z,12.80
2023-02-16T14:46:17.725Z,13.10
2023-02-16T14:48:35.821Z,13.77
2023-02-16T14:51:14.680Z,13.82
2023-02-16T14:53:55.154Z,12.65
2023-02-16T14:56:12.532Z,13.18
2023-02-16T14:58:32.418Z,12.63
2023-02-16T15:00:46.333Z,12.98
2023-02-16T15:03:01.992Z,12.85
2023-02-16T15:05:21.317Z,12.85
2023-02-16T15:07:24.505Z,13.27
2023-02-16T15:09:31.113Z,13.27
2023-02-16T15:11:56.885Z,12.52
2023-02-16T15:16:15.285Z,12.20
2023-02-16T15:18:23.759Z,11.60
2023-02-16T15:20:37.712Z,12.27
2023-02-16T15:22:44.215Z,12.93
2023-02-16T15:24:55.956Z,12.48
2023-02-16T15:27:01.442Z,12.10
2023-02-16T15:29:22.675Z,12.82
2023-02-16T15:31:36.917Z,12.65
2023-02-16T15:33:41.666Z,11.90
2023-02-16T15:35:46.686Z,12.10
2023-02-16T15:37:48.496Z,12.68
2023-02-16T15:40:08.658Z,12.93
2023-02-16T15:42:20.834Z,13.25
2023-02-16T15:44:36.150Z,12.98
2023-02-16T15:46:40.415Z,11.93
2023-02-16T15:48:41.852Z,12.18
2023-02-16T15:50:45.052Z,12.65
2023-02-16T15:52:47.652Z,14.10
2023-02-16T15:54:50.194Z,13.55
2023-02-16T15:56:54.161Z,13.95
2023-02-16T15:58:57.983Z,13.63
2023-02-16T16:01:00.435Z,13.30
2023-02-16T16:03:01.987Z,11.63
2023-02-16T16:05:06.730Z,12.90
2023-02-16T16:07:12.911Z,13.18
2023-02-16T16:09:22.535Z,13.50
2023-02-16T16:11:23.996Z,12.45
2023-02-16T16:13:29.274Z,12.60
2023-02-16T16:15:37.247Z,13.15
2023-02-16T16:17:39.703Z,12.48
2023-02-16T16:19:41.651Z,11.43
2023-02-16T16:21:51.795Z,11.57
2023-02-16T16:23:59.663Z,12.07
2023-02-16T16:26:01.082Z,12.25
2023-02-16T16:28:08.518Z,13.02
2023-02-16T16:30:28.516Z,11.90
2023-02-16T16:32:29.936Z,12.40
2023-02-16T16:34:40.155Z,12.52
2023-02-16T16:36:55.901Z,12.25
2023-02-16T16:39:16.100Z,12.18
2023-02-16T16:41:27.645Z,12.23
2023-02-16T16:43:35.154Z,11.27
2023-02-16T16:45:40.653Z,11.93
2023-02-16T16:47:50.262Z,11.95
2023-02-16T16:49:53.885Z,11.88
2023-02-16T16:51:55.276Z,11.27
2023-02-16T16:54:03.893Z,12.55
2023-02-16T16:56:13.640Z,11.70
2023-02-16T16:58:15.018Z,11.27
2023-02-16T17:00:18.353Z,12.00
2023-02-16T17:02:19.848Z,11.10
2023-02-16T17:04:22.022Z,10.98
2023-02-16T17:06:24.300Z,11.13
2023-02-16T17:08:25.677Z,11.68
2023-02-16T17:10:27.713Z,11.57
2023-02-16T17:12:29.531Z,11.23
2023-02-16T17:14:30.966Z,11.23
2023-02-16T17:16:37.158Z,10.95
2023-02-16T17:18:39.555Z,11.40
2023-02-16T17:20:40.962Z,11.10
2023-02-16T17:22:42.331Z,11.43
2023-02-16T17:24:44.018Z,11.20
2023-02-16T17:26:45.488Z,12.07
2023-02-16T17:28:46.900Z,10.90
2023-02-16T17:30:48.407Z,11.43
2023-02-16T17:32:49.782Z,11.20
2023-02-16T17:34:51.167Z,10.80
2023-02-16T17:36:52.556Z,10.45
2023-02-16T17:38:54.252Z,10.18
2023-02-16T17:40:57.105Z,10.50
2023-02-16T17:42:58.504Z,11.00
2023-02-16T17:45:00.084Z,10.90
2023-02-16T17:47:01.529Z,10.85
2023-02-16T17:49:02.897Z,10.50
2023-02-16T17:51:04.831Z,10.63
2023-02-16T17:53:12.182Z,10.68
2023-02-16T17:55:13.665Z,10.57
2023-02-16T17:57:15.083Z,10.45
2023-02-16T17:59:17.598Z,10.07
2023-02-16T18:01:19.975Z,10.93
2023-02-16T18:03:22.870Z,10.55
2023-02-16T18:05:24.274Z,9.93
2023-02-16T18:07:25.938Z,9.88
2023-02-16T18:09:27.323Z,10.35
2023-02-16T18:11:28.698Z,10.32
2023-02-16T18:13:31.265Z,10.23
2023-02-16T18:15:33.365Z,10.43
2023-02-16T18:17:34.843Z,10.68
2023-02-16T18:19:36.250Z,9.60
2023-02-16T18:21:37.634Z,10.98
2023-02-16T18:23:39.184Z,9.85
2023-02-16T18:25:42.954Z,10.23
2023-02-16T18:27:44.665Z,9.45
2023-02-16T18:29:46.037Z,10.25
2023-02-16T18:31:47.674Z,10.30
2023-02-16T18:33:49.066Z,8.95
2023-02-16T18:35:52.074Z,10.07
2023-02-16T18:37:54.315Z,10.07
2023-02-16T18:39:55.963Z,8.95
2023-02-16T18:41:57.378Z,10.18
2023-02-16T18:43:58.818Z,9.25
2023-02-16T18:46:05.458Z,8.50
2023-02-16T18:48:07.080Z,9.30
2023-02-16T18:50:08.827Z,9.27
2023-02-16T18:52:10.706Z,8.77
2023-02-16T18:54:12.093Z,8.75
2023-02-16T18:56:13.556Z,8.40
2023-02-16T18:58:15.069Z,8.05
2023-02-16T19:00:17.216Z,7.30
2023-02-16T19:02:18.636Z,8.70
2023-02-16T19:04:20.145Z,9.15
2023-02-16T19:06:21.886Z,9.13
2023-02-16T19:08:23.248Z,8.27
2023-02-16T19:10:25.122Z,7.78
2023-02-16T19:12:26.675Z,7.82
2023-02-16T19:14:28.116Z,8.63
2023-02-16T19:16:29.724Z,8.40
2023-02-16T19:18:32.003Z,8.43
2023-02-16T19:20:33.395Z,8.15
2023-02-16T19:22:37.150Z,8.50
2023-02-16T19:24:38.694Z,8.05
2023-02-16T19:26:40.624Z,8.43
2023-02-16T19:28:43.152Z,8.23
2023-02-16T19:30:44.558Z,7.63
2023-02-16T19:32:45.948Z,7.30
2023-02-16T19:34:47.330Z,7.43
2023-02-16T19:36:48.691Z,7.88
2023-02-16T19:38:50.284Z,8.50
2023-02-16T19:40:51.680Z,8.43
2023-02-16T19:42:53.046Z,7.93
2023-02-16T19:44:54.435Z,8.07
2023-02-16T19:46:56.430Z,9.95
2023-02-16T19:48:58.748Z,8.27
2023-02-16T19:51:02.077Z,8.73
2023-02-16T19:53:03.829Z,8.73
2023-02-16T19:55:05.472Z,8.90
2023-02-16T19:57:07.148Z,8.65
2023-02-16T19:59:09.825Z,8.10
2023-02-16T20:01:17.404Z,9.52
2023-02-16T20:03:19.260Z,9.48
2023-02-16T20:05:20.686Z,9.32
2023-02-16T20:07:22.044Z,9.18
2023-02-16T20:09:24.512Z,9.93
2023-02-16T20:11:28.862Z,9.75
2023-02-16T20:13:30.667Z,9.82
2023-02-16T20:15:32.177Z,10.43
2023-02-16T20:17:33.798Z,10.20
2023-02-16T20:19:35.169Z,10.75
2023-02-16T20:21:36.686Z,10.43
2023-02-16T20:23:38.435Z,10.57
2023-02-16T20:25:40.135Z,8.50
2023-02-16T20:27:41.653Z,10.75
2023-02-16T20:29:43.047Z,11.13
2023-02-16T20:31:55.646Z,10.32
2023-02-16T20:33:58.061Z,11.05
2023-02-16T20:35:59.456Z,11.13
2023-02-16T20:38:00.822Z,10.73
2023-02-16T20:40:02.235Z,10.30
2023-02-16T20:42:03.835Z,12.27
2023-02-16T20:44:05.434Z,11.77
2023-02-16T20:46:08.114Z,10.95
2023-02-16T20:48:10.122Z,10.80
2023-02-16T20:50:11.563Z,10.30
2023-02-16T20:52:13.300Z,12.18
2023-02-16T20:54:14.634Z,11.85
2023-02-16T20:56:18.391Z,10.20
2023-02-16T20:58:20.670Z,11.60
2023-02-16T21:00:24.004Z,11.40
2023-02-16T21:02:25.774Z,10.52
2023-02-16T21:04:27.316Z,11.05
2023-02-16T21:06:29.404Z,11.02
2023-02-16T21:08:30.896Z,11.43
2023-02-16T21:10:32.292Z,11.27
2023-02-16T21:12:33.658Z,11.65
2023-02-16T21:14:35.243Z,12.13
2023-02-16T21:16:36.933Z,12.40
2023-02-16T21:18:40.491Z,12.82
2023-02-16T21:20:43.055Z,11.68
2023-02-16T21:22:44.471Z,12.32
2023-02-16T21:24:45.843Z,11.18
2023-02-16T21:26:47.339Z,11.65
2023-02-16T21:28:49.472Z,11.88
2023-02-16T21:30:51.031Z,10.98
2023-02-16T21:32:52.466Z,12.13
2023-02-16T21:34:54.313Z,12.55
2023-02-16T21:36:55.772Z,11.43
2023-02-16T21:38:57.189Z,12.23
2023-02-16T21:41:24.968Z,13.27
2023-02-16T21:43:26.512Z,12.07
2023-02-16T21:45:27.930Z,12.35
2023-02-16T21:47:48.367Z,12.45
2023-02-16T21:49:49.754Z,12.60
2023-02-16T21:51:51.118Z,12.75
2023-02-16T21:53:56.083Z,11.68
2023-02-16T21:56:16.110Z,12.85
2023-02-16T22:00:43.992Z,11.63
2023-02-16T22:02:45.396Z,11.82
2023-02-16T22:04:48.214Z,11.48
2023-02-16T22:06:50.972Z,11.95
2023-02-16T22:08:52.978Z,11.55
2023-02-16T22:10:54.371Z,10.35
2023-02-16T22:12:56.881Z,11.40
2023-02-16T22:17:24.057Z,10.18
2023-02-16T22:19:25.454Z,9.25
2023-02-16T22:21:27.680Z,10.13
2023-02-16T22:23:29.106Z,9.38
2023-02-16T22:25:30.529Z,9.50
2023-02-16T22:27:31.931Z,10.18
2023-02-16T22:29:33.479Z,9.57
2023-02-16T22:31:36.628Z,10.27
2023-02-16T22:33:38.276Z,9.50
2023-02-16T22:35:39.799Z,10.13
2023-02-16T22:37:41.469Z,10.27
2023-02-16T22:39:43.006Z,10.35
2023-02-16T22:41:44.719Z,10.48
2023-02-16T22:43:46.560Z,10.50
2023-02-16T22:45:48.152Z,9.60
2023-02-16T22:47:49.728Z,9.90
2023-02-16T22:49:51.629Z,10.80
2023-02-16T22:51:53.283Z,10.73
2023-02-16T22:53:55.802Z,10.15
2023-02-16T22:55:57.514Z,9.57
2023-02-16T22:57:59.224Z,9.68
2023-02-16T23:00:00.875Z,10.38
2023-02-16T23:02:02.552Z,10.10
2023-02-16T23:04:04.066Z,10.35
2023-02-16T23:06:23.255Z,10.82
2023-02-16T23:08:24.637Z,10.00
2023-02-16T23:10:25.978Z,11.00
2023-02-16T23:12:27.856Z,11.07
2023-02-16T23:14:29.519Z,11.02
2023-02-16T23:16:31.715Z,11.23
2023-02-16T23:18:33.442Z,11.15
2023-02-16T23:20:34.846Z,11.25
2023-02-16T23:22:36.357Z,11.88
2023-02-16T23:24:40.095Z,11.65
2023-02-16T23:26:41.980Z,12.73
2023-02-16T23:28:44.394Z,13.13
2023-02-16T23:30:46.928Z,12.38
2023-02-16T23:32:48.702Z,13.18
2023-02-16T23:34:50.224Z,14.00
2023-02-16T23:36:51.708Z,12.82
2023-02-16T23:38:53.093Z,13.60
2023-02-16T23:41:05.850Z,13.98
2023-02-16T23:43:07.703Z,13.60
2023-02-16T23:45:09.261Z,13.93
2023-02-16T23:47:10.663Z,15.45
2023-02-16T23:49:12.130Z,14.60
2023-02-16T23:51:13.671Z,14.95
2023-02-16T23:53:15.162Z,15.13
2023-02-16T23:55:17.072Z,15.07
2023-02-16T23:57:18.490Z,15.43
2023-02-16T23:59:19.831Z,14.82
